createdAt,value
2018-10-11T00:00:44.368Z,10.90
2018-10-11T00:03:13.698Z,11.50
2018-10-11T00:05:42.796Z,12.00
2018-10-11T00:08:13.684Z,11.10
2018-10-11T00:10:43.034Z,11.80
2018-10-11T00:13:12.603Z,10.90
2018-10-11T00:15:42.331Z,11.67
2018-10-11T00:18:11.725Z,11.13
2018-10-11T00:20:42.591Z,10.87
2018-10-11T00:23:12.075Z,10.43
2018-10-11T00:25:41.719Z,10.87
2018-10-11T00:28:11.326Z,10.73
2018-10-11T00:30:40.508Z,10.97
2018-10-11T00:33:09.607Z,10.30
2018-10-11T00:35:38.802Z,11.10
2018-10-11T00:38:08.164Z,11.53
2018-10-11T00:40:37.704Z,11.00
2018-10-11T00:43:07.309Z,11.30
2018-10-11T00:45:36.510Z,11.50
2018-10-11T00:48:06.191Z,11.00
2018-10-11T00:50:35.247Z,10.77
2018-10-11T00:53:04.693Z,11.43
2018-10-11T00:55:33.935Z,11.03
2018-10-11T00:58:03.245Z,10.43
2018-10-11T01:00:32.459Z,10.90
2018-10-11T01:03:02.149Z,11.70
2018-10-11T01:05:31.712Z,11.10
2018-10-11T01:08:00.829Z,10.80
2018-10-11T01:10:30.091Z,10.40
2018-10-11T01:12:59.321Z,9.80
2018-10-11T01:15:28.394Z,10.80
2018-10-11T01:17:58.474Z,11.33
2018-10-11T01:20:28.837Z,10.73
2018-10-11T01:22:58.427Z,9.87
2018-10-11T01:25:28.622Z,10.70
2018-10-11T01:27:58.755Z,10.67
2018-10-11T01:30:28.775Z,11.03
2018-10-11T01:32:57.964Z,10.50
2018-10-11T01:35:28.042Z,11.07
2018-10-11T01:37:57.317Z,10.27
2018-10-11T01:40:26.775Z,10.40
2018-10-11T01:43:05.018Z,10.27
2018-10-11T01:45:34.827Z,11.10
2018-10-11T01:48:05.042Z,10.97
2018-10-11T01:50:37.254Z,11.03
2018-10-11T01:53:06.731Z,10.80
2018-10-11T01:55:35.959Z,11.17
2018-10-11T01:58:05.191Z,10.43
2018-10-11T02:00:34.335Z,10.57
2018-10-11T02:03:03.795Z,10.43
2018-10-11T02:05:33.137Z,11.07
2018-10-11T02:08:02.388Z,10.60
2018-10-11T02:10:31.523Z,11.03
2018-10-11T02:13:00.908Z,10.73
2018-10-11T02:15:30.210Z,10.80
2018-10-11T02:17:59.482Z,10.97
2018-10-11T02:20:29.120Z,11.20
2018-10-11T02:22:58.578Z,10.47
2018-10-11T02:25:27.708Z,11.03
2018-10-11T02:27:57.158Z,12.63
2018-10-11T02:30:26.247Z,11.37
2018-10-11T02:32:55.597Z,12.17
2018-10-11T02:35:24.805Z,12.23
2018-10-11T02:37:54.109Z,11.50
2018-10-11T02:40:24.779Z,11.33
2018-10-11T02:42:54.757Z,12.80
2018-10-11T02:45:24.377Z,12.23
2018-10-11T02:47:53.986Z,12.80
2018-10-11T02:50:23.625Z,11.70
2018-10-11T02:52:54.078Z,13.90
2018-10-11T02:55:26.243Z,12.83
2018-10-11T02:58:06.128Z,12.90
2018-10-11T03:00:35.869Z,12.17
2018-10-11T03:03:07.635Z,12.60
2018-10-11T03:05:38.743Z,12.23
2018-10-11T03:08:09.784Z,12.20
2018-10-11T03:10:39.975Z,12.93
2018-10-11T03:13:12.427Z,12.60
2018-10-11T03:15:42.354Z,12.10
2018-10-11T03:18:12.530Z,12.63
2018-10-11T03:20:42.626Z,12.50
2018-10-11T03:23:12.502Z,12.83
2018-10-11T03:25:42.600Z,11.70
2018-10-11T03:28:13.103Z,11.97
2018-10-11T03:30:42.820Z,13.00
2018-10-11T03:33:12.987Z,13.27
2018-10-11T03:35:43.570Z,12.80
2018-10-11T03:38:14.488Z,12.53
2018-10-11T03:40:43.899Z,12.43
2018-10-11T03:43:13.719Z,13.23
2018-10-11T03:45:42.951Z,13.40
2018-10-11T03:48:12.425Z,13.77
2018-10-11T03:50:41.759Z,13.47
2018-10-11T03:53:11.406Z,12.53
2018-10-11T03:55:40.545Z,13.60
2018-10-11T03:58:10.305Z,12.77
2018-10-11T04:00:40.111Z,13.10
2018-10-11T04:03:09.189Z,12.73
2018-10-11T04:05:38.381Z,12.83
2018-10-11T04:08:08.283Z,13.03
2018-10-11T04:10:37.985Z,12.90
2018-10-11T04:13:07.421Z,13.17
2018-10-11T04:15:38.533Z,13.27
2018-10-11T04:18:08.395Z,12.73
2018-10-11T04:20:38.628Z,13.87
2018-10-11T04:23:08.569Z,12.87
2018-10-11T04:25:37.679Z,13.27
2018-10-11T04:28:07.404Z,17.23
2018-10-11T04:30:37.226Z,16.87
2018-10-11T04:33:06.403Z,15.07
2018-10-11T04:35:35.754Z,13.73
2018-10-11T04:38:04.929Z,14.87
2018-10-11T04:40:34.351Z,13.77
2018-10-11T04:43:03.735Z,14.57
2018-10-11T04:45:32.822Z,13.63
2018-10-11T04:48:02.151Z,12.57
2018-10-11T04:50:32.115Z,13.40
2018-10-11T04:53:01.293Z,14.87
2018-10-11T04:55:38.917Z,13.70
2018-10-11T04:58:08.150Z,14.93
2018-10-11T05:00:37.623Z,13.20
2018-10-11T05:03:07.571Z,14.10
2018-10-11T05:05:36.864Z,13.60
2018-10-11T05:08:06.263Z,13.13
2018-10-11T05:10:36.002Z,13.30
2018-10-11T05:13:06.039Z,12.47
2018-10-11T05:15:36.828Z,12.77
2018-10-11T05:18:13.954Z,12.67
2018-10-11T05:20:45.012Z,12.67
2018-10-11T05:23:14.697Z,13.33
2018-10-11T05:25:44.226Z,13.30
2018-10-11T05:28:14.405Z,12.37
2018-10-11T05:30:47.006Z,12.77
2018-10-11T05:33:50.471Z,12.33
2018-10-11T05:36:19.680Z,13.50
2018-10-11T05:38:54.543Z,12.83
2018-10-11T05:41:39.111Z,12.40
2018-10-11T05:44:08.584Z,13.80
2018-10-11T05:46:39.706Z,13.40
2018-10-11T05:49:12.103Z,13.90
2018-10-11T05:51:41.894Z,12.03
2018-10-11T05:54:16.040Z,12.77
2018-10-11T05:56:51.365Z,13.40
2018-10-11T05:59:21.328Z,15.28
2018-10-11T06:01:51.172Z,13.93
2018-10-11T06:04:22.186Z,13.73
2018-10-11T06:06:51.820Z,16.07
2018-10-11T06:09:21.901Z,14.03
2018-10-11T06:11:53.268Z,13.17
2018-10-11T06:14:25.565Z,13.40
2018-10-11T06:17:08.739Z,17.02
2018-10-11T06:19:42.917Z,13.73
2018-10-11T06:22:20.209Z,14.80
2018-10-11T06:24:50.468Z,13.90
2018-10-11T06:27:20.911Z,16.73
2018-10-11T06:29:51.970Z,14.03
2018-10-11T06:32:27.113Z,13.70
2018-10-11T06:34:56.653Z,13.53
2018-10-11T06:37:29.280Z,12.73
2018-10-11T06:40:01.053Z,14.03
2018-10-11T06:42:32.829Z,13.13
2018-10-11T06:45:05.033Z,13.33
2018-10-11T06:47:34.854Z,13.67
2018-10-11T06:50:05.132Z,13.70
2018-10-11T06:52:35.569Z,13.37
2018-10-11T06:55:06.589Z,14.27
2018-10-11T06:57:35.742Z,13.97
2018-10-11T07:00:06.242Z,13.50
2018-10-11T07:02:40.120Z,13.80
2018-10-11T07:05:10.765Z,12.87
2018-10-11T07:07:40.837Z,14.63
2018-10-11T07:10:10.541Z,17.33
2018-10-11T07:12:40.255Z,13.17
2018-10-11T07:15:09.871Z,12.70
2018-10-11T07:17:43.567Z,14.23
2018-10-11T07:20:17.943Z,13.30
2018-10-11T07:22:59.198Z,12.63
2018-10-11T07:25:37.223Z,11.70
2018-10-11T07:28:16.480Z,12.43
2018-10-11T07:30:53.026Z,12.37
2018-10-11T07:33:28.782Z,11.60
2018-10-11T07:35:58.755Z,11.50
2018-10-11T07:38:37.680Z,11.57
2018-10-11T07:41:10.202Z,12.47
2018-10-11T07:43:39.430Z,11.23
2018-10-11T07:46:09.656Z,10.40
2018-10-11T07:48:39.172Z,10.43
2018-10-11T07:51:10.637Z,10.27
2018-10-11T07:53:44.826Z,10.80
2018-10-11T07:56:14.301Z,10.47
2018-10-11T07:58:50.703Z,10.03
2018-10-11T08:01:20.170Z,9.63
2018-10-11T08:03:50.208Z,9.60
2018-10-11T08:06:27.588Z,10.30
2018-10-11T08:08:57.106Z,9.77
2018-10-11T08:11:28.790Z,9.30
2018-10-11T08:13:58.220Z,9.30
2018-10-11T08:16:28.874Z,8.93
2018-10-11T08:19:00.220Z,9.30
2018-10-11T08:21:30.764Z,10.00
2018-10-11T08:24:00.192Z,9.87
2018-10-11T08:26:30.161Z,9.07
2018-10-11T08:29:00.087Z,8.93
2018-10-11T08:31:29.600Z,9.23
2018-10-11T08:34:00.587Z,8.57
2018-10-11T08:36:31.590Z,9.13
2018-10-11T08:39:01.897Z,9.33
2018-10-11T08:41:32.047Z,9.37
2018-10-11T08:44:04.871Z,8.83
2018-10-11T08:46:35.683Z,10.63
2018-10-11T08:49:06.319Z,8.77
2018-10-11T08:51:37.389Z,8.40
2018-10-11T08:54:13.515Z,8.40
2018-10-11T08:56:43.202Z,7.60
2018-10-11T08:59:16.854Z,7.63
2018-10-11T09:01:46.923Z,7.50
2018-10-11T09:04:16.749Z,7.87
2018-10-11T09:06:51.146Z,7.20
2018-10-11T09:09:26.572Z,6.97
2018-10-11T09:11:56.867Z,6.70
2018-10-11T09:14:32.084Z,6.77
2018-10-11T09:17:06.398Z,6.70
2018-10-11T09:19:39.340Z,7.23
2018-10-11T09:22:12.518Z,6.80
2018-10-11T09:24:41.831Z,6.50
2018-10-11T09:27:11.703Z,6.53
2018-10-11T09:29:41.927Z,5.60
2018-10-11T09:34:50.825Z,6.07
2018-10-11T09:37:20.108Z,5.50
2018-10-11T09:39:50.211Z,5.93
2018-10-11T09:42:20.380Z,5.63
2018-10-11T09:44:50.360Z,5.57
2018-10-11T09:47:20.351Z,5.30
2018-10-11T09:49:50.114Z,5.30
2018-10-11T09:52:19.599Z,4.80
2018-10-11T09:54:52.740Z,5.07
2018-10-11T09:57:24.660Z,5.27
2018-10-11T09:59:57.230Z,4.87
2018-10-11T10:02:28.176Z,4.67
2018-10-11T10:05:02.831Z,4.60
2018-10-11T10:07:33.137Z,4.50
2018-10-11T10:10:03.659Z,4.73
2018-10-11T10:12:34.125Z,4.30
2018-10-11T10:15:12.289Z,4.37
2018-10-11T10:17:41.639Z,4.33
2018-10-11T10:20:14.491Z,4.60
2018-10-11T10:22:44.469Z,4.90
2018-10-11T10:25:15.362Z,4.47
2018-10-11T10:28:24.653Z,4.23
2018-10-11T10:30:55.351Z,7.43
2018-10-11T10:33:49.800Z,4.63
2018-10-11T10:36:20.129Z,4.73
2018-10-11T10:39:37.356Z,4.20
2018-10-11T10:42:11.875Z,4.87
2018-10-11T10:45:09.054Z,4.37
2018-10-11T10:47:40.311Z,4.80
2018-10-11T10:50:46.548Z,4.77
2018-10-11T10:53:17.599Z,4.70
2018-10-11T10:56:38.371Z,4.60
2018-10-11T10:59:13.320Z,4.57
2018-10-11T11:02:01.905Z,5.87
2018-10-11T11:04:33.005Z,5.27
2018-10-11T11:07:36.788Z,4.80
2018-10-11T11:10:15.117Z,4.80
2018-10-11T11:13:12.740Z,5.13
2018-10-11T11:15:55.102Z,5.17
2018-10-11T11:18:57.628Z,4.43
2018-10-11T11:21:44.353Z,4.20
2018-10-11T11:27:41.718Z,4.80
2018-10-11T11:33:32.530Z,4.83
2018-10-11T11:36:03.444Z,5.33
2018-10-11T11:38:59.751Z,5.73
2018-10-11T11:41:30.986Z,4.50
2018-10-11T11:44:42.869Z,4.50
2018-10-11T11:47:13.129Z,4.23
2018-10-11T11:50:32.472Z,4.60
2018-10-11T11:53:02.478Z,4.30
2018-10-11T11:56:12.391Z,4.45
2018-10-11T11:58:43.031Z,4.00
2018-10-11T12:01:30.638Z,4.53
2018-10-11T12:04:07.459Z,4.60
2018-10-11T12:06:38.937Z,4.57
2018-10-11T12:09:58.821Z,4.43
2018-10-11T12:13:06.802Z,4.67
2018-10-11T12:16:03.901Z,4.03
2018-10-11T12:18:34.425Z,4.37
2018-10-11T12:21:39.296Z,5.20
2018-10-11T12:24:11.472Z,4.57
2018-10-11T12:26:45.352Z,4.83
2018-10-11T12:29:15.487Z,4.70
2018-10-11T12:31:45.807Z,4.17
2018-10-11T12:34:17.729Z,5.07
2018-10-11T12:36:48.321Z,4.63
2018-10-11T12:39:49.303Z,4.37
2018-10-11T12:42:22.605Z,4.53
2018-10-11T12:45:19.539Z,4.83
2018-10-11T12:47:50.682Z,4.63
2018-10-11T12:51:11.012Z,4.43
2018-10-11T12:53:44.330Z,4.10
2018-10-11T12:56:37.682Z,4.10
2018-10-11T12:59:19.265Z,3.73
2018-10-11T13:01:49.611Z,4.78
2018-10-11T13:04:23.564Z,4.20
2018-10-11T13:06:56.874Z,4.07
2018-10-11T13:09:29.142Z,3.93
2018-10-11T13:12:00.758Z,5.00
2018-10-11T13:14:35.506Z,3.97
2018-10-11T13:17:09.789Z,4.03
2018-10-11T13:19:40.179Z,3.73
2018-10-11T13:22:10.735Z,4.17
2018-10-11T13:24:45.996Z,3.87
2018-10-11T13:27:15.586Z,4.20
2018-10-11T13:29:47.389Z,3.80
2018-10-11T13:32:17.915Z,3.80
2018-10-11T13:34:49.687Z,3.60
2018-10-11T13:37:36.796Z,3.43
2018-10-11T13:40:07.675Z,3.97
2018-10-11T13:42:52.103Z,3.90
2018-10-11T13:45:22.424Z,3.80
2018-10-11T13:47:53.450Z,3.60
2018-10-11T13:50:27.713Z,3.90
2018-10-11T13:52:58.469Z,3.80
2018-10-11T13:55:33.326Z,3.67
2018-10-11T13:58:03.732Z,3.60
2018-10-11T14:00:34.845Z,4.03
2018-10-11T14:03:07.274Z,3.30
2018-10-11T14:05:44.809Z,4.00
2018-10-11T14:08:17.478Z,3.70
2018-10-11T14:10:47.715Z,3.57
2018-10-11T14:13:20.779Z,4.00
2018-10-11T14:15:52.760Z,4.28
2018-10-11T14:18:22.702Z,3.73
2018-10-11T14:20:59.523Z,3.50
2018-10-11T14:23:34.238Z,3.17
2018-10-11T14:26:04.189Z,3.63
2018-10-11T14:28:35.290Z,3.80
2018-10-11T14:31:06.539Z,4.30
2018-10-11T14:33:37.570Z,4.65
2018-10-11T14:36:09.021Z,3.37
2018-10-11T14:38:39.331Z,3.80
2018-10-11T14:41:10.021Z,3.62
2018-10-11T14:43:39.825Z,3.23
2018-10-11T14:46:11.688Z,3.20
2018-10-11T14:48:44.498Z,3.40
2018-10-11T14:51:14.341Z,3.40
2018-10-11T14:53:45.511Z,3.65
2018-10-11T14:56:15.795Z,3.33
2018-10-11T14:58:45.622Z,3.00
2018-10-11T15:01:24.757Z,3.20
2018-10-11T15:03:56.796Z,3.47
2018-10-11T15:06:29.424Z,3.17
2018-10-11T15:09:00.191Z,3.63
2018-10-11T15:11:45.023Z,3.53
2018-10-11T15:14:36.290Z,3.70
2018-10-11T15:17:13.483Z,3.60
2018-10-11T15:19:50.651Z,3.20
2018-10-11T15:22:30.669Z,3.90
2018-10-11T15:25:22.214Z,3.57
2018-10-11T15:28:01.638Z,3.17
2018-10-11T15:30:42.450Z,3.67
2018-10-11T15:33:22.242Z,3.47
2018-10-11T15:35:58.378Z,3.40
2018-10-11T15:38:34.742Z,4.20
2018-10-11T15:41:13.122Z,3.47
2018-10-11T15:43:50.622Z,4.07
2018-10-11T15:46:22.775Z,3.50
2018-10-11T15:48:55.277Z,4.00
2018-10-11T15:51:26.759Z,4.07
2018-10-11T15:53:58.747Z,3.70
2018-10-11T15:56:31.988Z,4.63
2018-10-11T15:59:04.168Z,4.10
2018-10-11T16:01:36.012Z,6.22
2018-10-11T16:04:09.735Z,5.17
2018-10-11T16:06:41.394Z,4.83
2018-10-11T16:09:11.597Z,5.13
2018-10-11T16:11:46.221Z,5.13
2018-10-11T16:14:21.633Z,5.30
2018-10-11T16:16:55.545Z,5.03
2018-10-11T16:19:27.427Z,5.80
2018-10-11T16:21:59.056Z,6.00
2018-10-11T16:24:29.422Z,5.57
2018-10-11T16:26:59.759Z,5.77
2018-10-11T16:29:30.421Z,5.93
2018-10-11T16:32:02.521Z,5.77
2018-10-11T16:34:34.547Z,5.63
2018-10-11T16:37:04.796Z,5.70
2018-10-11T16:39:38.146Z,6.07
2018-10-11T16:42:08.803Z,5.63
2018-10-11T16:44:38.824Z,5.50
2018-10-11T16:47:09.620Z,5.67
2018-10-11T16:49:42.273Z,6.47
2018-10-11T16:52:12.522Z,5.90
2018-10-11T16:54:45.281Z,6.87
2018-10-11T16:57:17.054Z,6.47
2018-10-11T16:59:47.934Z,6.30
2018-10-11T17:02:35.034Z,5.47
2018-10-11T17:05:38.353Z,5.70
2018-10-11T17:08:11.770Z,6.50
2018-10-11T17:10:44.407Z,6.20
2018-10-11T17:13:17.135Z,5.70
2018-10-11T17:15:47.152Z,5.77
2018-10-11T17:18:19.530Z,5.87
2018-10-11T17:20:51.036Z,5.77
2018-10-11T17:25:31.490Z,5.80
2018-10-11T17:28:02.865Z,8.27
2018-10-11T17:31:21.666Z,6.43
2018-10-11T17:33:54.019Z,6.03
2018-10-11T17:36:25.149Z,5.53
2018-10-11T17:38:55.443Z,5.30
2018-10-11T17:41:28.454Z,5.47
2018-10-11T17:43:59.742Z,6.20
2018-10-11T17:46:32.325Z,5.80
2018-10-11T17:53:11.749Z,6.20
2018-10-11T17:56:15.342Z,6.20
2018-10-11T17:58:45.590Z,5.37
2018-10-11T18:01:54.728Z,6.63
2018-10-11T18:04:26.386Z,7.43
2018-10-11T18:06:57.371Z,6.53
2018-10-11T18:09:28.519Z,7.13
2018-10-11T18:12:00.409Z,6.43
2018-10-11T18:14:31.461Z,6.00
2018-10-11T18:17:02.264Z,6.43
2018-10-11T18:20:08.179Z,6.37
2018-10-11T18:22:41.505Z,6.33
2018-10-11T18:25:15.246Z,6.83
2018-10-11T18:27:51.225Z,6.50
2018-10-11T18:30:23.806Z,6.20
2018-10-11T18:32:57.529Z,6.27
2018-10-11T18:35:29.323Z,6.50
2018-10-11T18:37:59.656Z,6.67
2018-10-11T18:41:08.930Z,7.47
2018-10-11T18:43:43.428Z,6.73
2018-10-11T18:46:42.193Z,6.60
2018-10-11T18:49:13.441Z,6.87
2018-10-11T18:52:22.165Z,7.30
2018-10-11T18:54:53.647Z,7.27
2018-10-11T18:57:50.665Z,6.97
2018-10-11T19:00:23.999Z,6.53
2018-10-11T19:03:46.101Z,7.00
2018-10-11T19:06:16.498Z,7.30
2018-10-11T19:09:23.836Z,7.40
2018-10-11T19:11:55.208Z,8.90
2018-10-11T19:14:58.214Z,8.13
2018-10-11T19:18:31.154Z,8.33
2018-10-11T19:21:02.024Z,7.27
2018-10-11T19:24:05.798Z,7.83
2018-10-11T19:26:37.764Z,8.10
2018-10-11T19:29:54.621Z,8.50
2018-10-11T19:32:33.964Z,7.70
2018-10-11T19:35:04.393Z,8.20
2018-10-11T19:38:20.449Z,8.50
2018-10-11T19:40:51.860Z,8.70
2018-10-11T19:43:21.854Z,8.67
2018-10-11T19:45:55.292Z,8.27
2018-10-11T19:48:29.850Z,8.10
2018-10-11T19:51:27.572Z,9.27
2018-10-11T19:53:58.115Z,9.10
2018-10-11T19:56:28.271Z,9.43
2018-10-11T19:58:58.805Z,9.10
2018-10-11T20:01:29.604Z,9.03
2018-10-11T20:04:00.544Z,9.13
2018-10-11T20:06:32.361Z,9.67
2018-10-11T20:09:06.429Z,9.90
2018-10-11T20:11:36.680Z,8.87
2018-10-11T20:14:40.109Z,9.93
2018-10-11T20:17:10.374Z,9.13
2018-10-11T20:19:41.382Z,9.77
2018-10-11T20:22:12.720Z,9.93
2018-10-11T20:24:45.936Z,9.97
2018-10-11T20:27:17.485Z,9.73
2018-10-11T20:30:26.773Z,10.27
2018-10-11T20:32:58.367Z,9.33
2018-10-11T20:36:10.811Z,10.00
2018-10-11T20:38:40.503Z,9.93
2018-10-11T20:41:12.267Z,10.30
2018-10-11T20:44:31.331Z,10.67
2018-10-11T20:47:04.312Z,10.30
2018-10-11T20:49:34.669Z,10.23
2018-10-11T20:52:08.490Z,10.50
2018-10-11T20:54:39.519Z,9.87
2018-10-11T20:57:11.773Z,10.87
2018-10-11T20:59:42.580Z,10.13
2018-10-11T21:02:14.330Z,10.20
2018-10-11T21:04:47.656Z,12.00
2018-10-11T21:07:20.086Z,10.40
2018-10-11T21:09:51.597Z,10.17
2018-10-11T21:12:21.677Z,10.23
2018-10-11T21:15:40.456Z,10.97
2018-10-11T21:18:14.349Z,11.00
2018-10-11T21:21:20.765Z,11.57
2018-10-11T21:23:52.795Z,9.93
2018-10-11T21:26:22.777Z,10.37
2018-10-11T21:32:13.262Z,10.50
2018-10-11T21:34:43.660Z,9.83
2018-10-11T21:37:14.007Z,10.43
2018-10-11T21:39:46.188Z,10.47
2018-10-11T21:42:15.861Z,10.37
2018-10-11T21:44:45.812Z,10.20
2018-10-11T21:47:15.748Z,10.13
2018-10-11T21:50:34.752Z,10.40
2018-10-11T21:53:04.585Z,9.93
2018-10-11T21:55:34.507Z,10.57
2018-10-11T21:58:34.454Z,10.23
2018-10-11T22:01:09.257Z,9.70
2018-10-11T22:03:39.516Z,9.27
2018-10-11T22:06:16.493Z,9.67
2018-10-11T22:08:47.341Z,9.63
2018-10-11T22:11:17.755Z,10.87
2018-10-11T22:14:22.269Z,9.73
2018-10-11T22:16:55.708Z,10.00
2018-10-11T22:19:25.767Z,10.03
2018-10-11T22:21:55.544Z,9.53
2018-10-11T22:24:25.356Z,10.47
2018-10-11T22:27:37.269Z,9.43
2018-10-11T22:30:07.248Z,10.07
2018-10-11T22:32:36.937Z,9.43
2018-10-11T22:35:53.937Z,9.70
2018-10-11T22:38:23.743Z,9.67
2018-10-11T22:40:54.478Z,9.20
2018-10-11T22:43:24.143Z,9.27
2018-10-11T22:45:54.349Z,8.60
2018-10-11T22:48:25.781Z,9.00
2018-10-11T22:50:55.597Z,8.47
2018-10-11T22:53:25.301Z,9.07
2018-10-11T22:56:24.636Z,8.83
2018-10-11T22:58:54.523Z,9.00
2018-10-11T23:01:24.718Z,8.27
2018-10-11T23:03:54.441Z,8.73
2018-10-11T23:06:24.102Z,8.83
2018-10-11T23:08:54.753Z,8.30
2018-10-11T23:11:25.479Z,8.27
2018-10-11T23:13:57.156Z,7.90
2018-10-11T23:16:26.894Z,8.23
2018-10-11T23:18:57.122Z,8.43
2018-10-11T23:21:27.844Z,8.67
2018-10-11T23:23:59.556Z,8.30
2018-10-11T23:26:29.756Z,8.90
2018-10-11T23:28:59.385Z,8.23
2018-10-11T23:31:30.571Z,8.10
2018-10-11T23:34:00.281Z,7.40
2018-10-11T23:36:30.353Z,8.17
2018-10-11T23:39:00.253Z,7.53
2018-10-11T23:41:33.126Z,8.37
2018-10-11T23:44:02.833Z,8.47
2018-10-11T23:46:32.631Z,7.63
2018-10-11T23:49:03.757Z,7.43
2018-10-11T23:51:33.668Z,6.97
2018-10-11T23:54:03.424Z,7.40
2018-10-11T23:56:33.117Z,7.30
2018-10-11T23:59:02.853Z,6.67
